sensor_id;sensor_type;location;lat;lon;timestamp;temperature;humidity
35531;DHT22;21637;53.352;-6.356;2023-05-07T00:01:53;13.10;99.90
35531;DHT22;21637;53.352;-6.356;2023-05-07T00:04:18;13.20;99.90
35531;DHT22;21637;53.352;-6.356;2023-05-07T00:06:44;13.20;99.90
35531;DHT22;21637;53.352;-6.356;2023-05-07T00:09:10;13.20;99.90
35531;DHT22;21637;53.352;-6.356;2023-05-07T00:11:36;13.20;99.90
35531;DHT22;21637;53.352;-6.356;2023-05-07T00:14:02;13.30;99.90
35531;DHT22;21637;53.352;-6.356;2023-05-07T00:16:27;13.30;99.90
35531;DHT22;21637;53.352;-6.356;2023-05-07T00:18:53;13.30;99.90
35531;DHT22;21637;53.352;-6.356;2023-05-07T00:21:19;13.30;99.90
35531;DHT22;21637;53.352;-6.356;2023-05-07T00:23:44;13.20;99.90
35531;DHT22;21637;53.352;-6.356;2023-05-07T00:26:10;13.20;99.90
35531;DHT22;21637;53.352;-6.356;2023-05-07T00:28:36;13.10;99.90
35531;DHT22;21637;53.352;-6.356;2023-05-07T00:31:02;13.10;99.90
35531;DHT22;21637;53.352;-6.356;2023-05-07T00:33:27;13.00;99.90
35531;DHT22;21637;53.352;-6.356;2023-05-07T00:35:53;13.10;99.90
35531;DHT22;21637;53.352;-6.356;2023-05-07T00:38:22;13.10;99.90
35531;DHT22;21637;53.352;-6.356;2023-05-07T00:40:47;13.10;99.90
35531;DHT22;21637;53.352;-6.356;2023-05-07T00:43:13;13.20;99.90
35531;DHT22;21637;53.352;-6.356;2023-05-07T00:45:39;13.20;99.90
35531;DHT22;21637;53.352;-6.356;2023-05-07T00:48:05;13.20;99.90
35531;DHT22;21637;53.352;-6.356;2023-05-07T00:50:31;13.30;99.90
35531;DHT22;21637;53.352;-6.356;2023-05-07T00:52:58;13.30;99.90
35531;DHT22;21637;53.352;-6.356;2023-05-07T00:55:24;13.40;99.90
35531;DHT22;21637;53.352;-6.356;2023-05-07T00:57:50;13.40;99.90
35531;DHT22;21637;53.352;-6.356;2023-05-07T01:00:17;13.40;99.90
35531;DHT22;21637;53.352;-6.356;2023-05-07T01:02:43;13.50;99.90
35531;DHT22;21637;53.352;-6.356;2023-05-07T01:05:13;13.50;99.90
35531;DHT22;21637;53.352;-6.356;2023-05-07T01:07:40;13.40;99.90
35531;DHT22;21637;53.352;-6.356;2023-05-07T01:10:08;13.50;99.90
35531;DHT22;21637;53.352;-6.356;2023-05-07T01:12:36;13.50;99.90
35531;DHT22;21637;53.352;-6.356;2023-05-07T01:15:03;13.50;99.90
35531;DHT22;21637;53.352;-6.356;2023-05-07T01:17:32;13.50;99.90
35531;DHT22;21637;53.352;-6.356;2023-05-07T01:19:58;13.60;99.90
35531;DHT22;21637;53.352;-6.356;2023-05-07T01:22:34;13.50;99.90
35531;DHT22;21637;53.352;-6.356;2023-05-07T01:25:00;13.50;99.90
35531;DHT22;21637;53.352;-6.356;2023-05-07T01:27:27;13.50;99.90
35531;DHT22;21637;53.352;-6.356;2023-05-07T01:29:53;13.50;99.90
35531;DHT22;21637;53.352;-6.356;2023-05-07T01:32:23;13.50;99.90
35531;DHT22;21637;53.352;-6.356;2023-05-07T01:34:51;13.60;99.90
35531;DHT22;21637;53.352;-6.356;2023-05-07T01:37:18;13.50;99.90
35531;DHT22;21637;53.352;-6.356;2023-05-07T01:39:44;13.50;99.90
35531;DHT22;21637;53.352;-6.356;2023-05-07T01:42:10;13.50;99.90
35531;DHT22;21637;53.352;-6.356;2023-05-07T01:44:36;13.40;99.90
35531;DHT22;21637;53.352;-6.356;2023-05-07T01:47:02;13.40;99.90
35531;DHT22;21637;53.352;-6.356;2023-05-07T01:49:29;13.40;99.90
35531;DHT22;21637;53.352;-6.356;2023-05-07T01:51:55;13.40;99.90
35531;DHT22;21637;53.352;-6.356;2023-05-07T01:54:25;13.40;99.90
35531;DHT22;21637;53.352;-6.356;2023-05-07T01:56:53;13.30;99.90
35531;DHT22;21637;53.352;-6.356;2023-05-07T01:59:19;13.30;99.90
35531;DHT22;21637;53.352;-6.356;2023-05-07T02:01:45;13.20;99.90
35531;DHT22;21637;53.352;-6.356;2023-05-07T02:04:10;13.20;99.90
35531;DHT22;21637;53.352;-6.356;2023-05-07T02:06:36;13.20;99.90
35531;DHT22;21637;53.352;-6.356;2023-05-07T02:09:02;13.10;99.90
35531;DHT22;21637;53.352;-6.356;2023-05-07T02:11:28;13.10;99.90
35531;DHT22;21637;53.352;-6.356;2023-05-07T02:13:53;13.10;99.90
35531;DHT22;21637;53.352;-6.356;2023-05-07T02:16:19;13.10;99.90
35531;DHT22;21637;53.352;-6.356;2023-05-07T02:18:45;13.00;99.90
35531;DHT22;21637;53.352;-6.356;2023-05-07T02:21:11;13.00;99.90
35531;DHT22;21637;53.352;-6.356;2023-05-07T02:23:36;12.90;99.90
35531;DHT22;21637;53.352;-6.356;2023-05-07T02:26:03;12.90;99.90
35531;DHT22;21637;53.352;-6.356;2023-05-07T02:28:29;12.80;99.90
35531;DHT22;21637;53.352;-6.356;2023-05-07T02:30:55;12.80;99.90
35531;DHT22;21637;53.352;-6.356;2023-05-07T02:33:21;12.80;99.90
35531;DHT22;21637;53.352;-6.356;2023-05-07T02:35:46;12.70;99.90
35531;DHT22;21637;53.352;-6.356;2023-05-07T02:38:13;12.70;99.90
35531;DHT22;21637;53.352;-6.356;2023-05-07T02:40:39;12.60;99.90
35531;DHT22;21637;53.352;-6.356;2023-05-07T02:43:05;12.70;99.90
35531;DHT22;21637;53.352;-6.356;2023-05-07T02:45:32;12.60;99.90
35531;DHT22;21637;53.352;-6.356;2023-05-07T02:47:58;12.60;99.90
35531;DHT22;21637;53.352;-6.356;2023-05-07T02:50:24;12.50;99.90
35531;DHT22;21637;53.352;-6.356;2023-05-07T02:52:50;12.50;99.90
35531;DHT22;21637;53.352;-6.356;2023-05-07T02:55:16;12.50;99.90
35531;DHT22;21637;53.352;-6.356;2023-05-07T02:57:42;12.40;99.90
35531;DHT22;21637;53.352;-6.356;2023-05-07T03:00:12;12.30;99.90
35531;DHT22;21637;53.352;-6.356;2023-05-07T03:02:38;12.30;99.90
35531;DHT22;21637;53.352;-6.356;2023-05-07T03:05:04;12.20;99.90
35531;DHT22;21637;53.352;-6.356;2023-05-07T03:07:30;12.10;99.90
35531;DHT22;21637;53.352;-6.356;2023-05-07T03:09:56;12.10;99.90
35531;DHT22;21637;53.352;-6.356;2023-05-07T03:12:22;12.00;99.90
35531;DHT22;21637;53.352;-6.356;2023-05-07T03:14:47;12.00;99.90
35531;DHT22;21637;53.352;-6.356;2023-05-07T03:17:13;11.90;99.90
35531;DHT22;21637;53.352;-6.356;2023-05-07T03:19:39;11.90;99.90
35531;DHT22;21637;53.352;-6.356;2023-05-07T03:22:04;11.90;99.90
35531;DHT22;21637;53.352;-6.356;2023-05-07T03:24:30;11.80;99.90
35531;DHT22;21637;53.352;-6.356;2023-05-07T03:26:56;11.80;99.90
35531;DHT22;21637;53.352;-6.356;2023-05-07T03:29:23;11.80;99.90
35531;DHT22;21637;53.352;-6.356;2023-05-07T03:31:49;11.70;99.90
35531;DHT22;21637;53.352;-6.356;2023-05-07T03:34:14;11.70;99.90
35531;DHT22;21637;53.352;-6.356;2023-05-07T03:36:42;11.60;99.90
35531;DHT22;21637;53.352;-6.356;2023-05-07T03:39:08;11.60;99.90
35531;DHT22;21637;53.352;-6.356;2023-05-07T03:41:34;11.50;99.90
35531;DHT22;21637;53.352;-6.356;2023-05-07T03:43:59;11.50;99.90
35531;DHT22;21637;53.352;-6.356;2023-05-07T03:46:25;11.40;99.90
35531;DHT22;21637;53.352;-6.356;2023-05-07T03:48:51;11.40;99.90
35531;DHT22;21637;53.352;-6.356;2023-05-07T03:51:17;11.30;99.90
35531;DHT22;21637;53.352;-6.356;2023-05-07T03:53:43;11.20;99.90
35531;DHT22;21637;53.352;-6.356;2023-05-07T03:56:09;11.20;99.90
35531;DHT22;21637;53.352;-6.356;2023-05-07T03:58:34;11.10;99.90
35531;DHT22;21637;53.352;-6.356;2023-05-07T04:01:00;11.00;99.90
35531;DHT22;21637;53.352;-6.356;2023-05-07T04:03:26;10.90;99.90
35531;DHT22;21637;53.352;-6.356;2023-05-07T04:05:52;10.90;99.90
35531;DHT22;21637;53.352;-6.356;2023-05-07T04:08:17;10.90;99.90
35531;DHT22;21637;53.352;-6.356;2023-05-07T04:10:43;10.80;99.90
35531;DHT22;21637;53.352;-6.356;2023-05-07T04:13:09;10.80;99.90
35531;DHT22;21637;53.352;-6.356;2023-05-07T04:15:35;10.80;99.90
35531;DHT22;21637;53.352;-6.356;2023-05-07T04:18:01;10.70;99.90
35531;DHT22;21637;53.352;-6.356;2023-05-07T04:20:27;10.70;99.90
35531;DHT22;21637;53.352;-6.356;2023-05-07T04:22:53;10.70;99.90
35531;DHT22;21637;53.352;-6.356;2023-05-07T04:25:18;10.70;99.90
35531;DHT22;21637;53.352;-6.356;2023-05-07T04:27:44;10.70;99.90
35531;DHT22;21637;53.352;-6.356;2023-05-07T04:30:10;10.70;99.90
35531;DHT22;21637;53.352;-6.356;2023-05-07T04:32:36;10.70;99.90
35531;DHT22;21637;53.352;-6.356;2023-05-07T04:35:03;10.70;99.90
35531;DHT22;21637;53.352;-6.356;2023-05-07T04:37:29;10.80;99.90
35531;DHT22;21637;53.352;-6.356;2023-05-07T04:39:54;10.70;99.90
35531;DHT22;21637;53.352;-6.356;2023-05-07T04:42:20;10.80;99.90
35531;DHT22;21637;53.352;-6.356;2023-05-07T04:44:46;10.80;99.90
35531;DHT22;21637;53.352;-6.356;2023-05-07T04:47:12;10.80;99.90
35531;DHT22;21637;53.352;-6.356;2023-05-07T04:49:40;10.80;99.90
35531;DHT22;21637;53.352;-6.356;2023-05-07T04:52:06;10.80;99.90
35531;DHT22;21637;53.352;-6.356;2023-05-07T04:54:32;10.90;99.90
35531;DHT22;21637;53.352;-6.356;2023-05-07T04:56:57;10.90;99.90
35531;DHT22;21637;53.352;-6.356;2023-05-07T04:59:23;10.90;99.90
35531;DHT22;21637;53.352;-6.356;2023-05-07T05:01:49;10.90;99.90
35531;DHT22;21637;53.352;-6.356;2023-05-07T05:04:15;10.90;99.90
35531;DHT22;21637;53.352;-6.356;2023-05-07T05:06:40;10.90;99.90
35531;DHT22;21637;53.352;-6.356;2023-05-07T05:09:06;11.00;99.90
35531;DHT22;21637;53.352;-6.356;2023-05-07T05:11:32;11.10;99.90
35531;DHT22;21637;53.352;-6.356;2023-05-07T05:13:59;11.20;99.90
35531;DHT22;21637;53.352;-6.356;2023-05-07T05:16:26;11.20;99.90
35531;DHT22;21637;53.352;-6.356;2023-05-07T05:18:51;11.30;99.90
35531;DHT22;21637;53.352;-6.356;2023-05-07T05:21:19;11.30;99.90
35531;DHT22;21637;53.352;-6.356;2023-05-07T05:23:45;11.30;99.90
35531;DHT22;21637;53.352;-6.356;2023-05-07T05:26:11;11.30;99.90
35531;DHT22;21637;53.352;-6.356;2023-05-07T05:28:37;11.30;99.90
35531;DHT22;21637;53.352;-6.356;2023-05-07T05:31:02;11.30;99.90
35531;DHT22;21637;53.352;-6.356;2023-05-07T05:33:28;11.30;99.90
35531;DHT22;21637;53.352;-6.356;2023-05-07T05:35:54;11.30;99.90
35531;DHT22;21637;53.352;-6.356;2023-05-07T05:38:20;11.30;99.90
35531;DHT22;21637;53.352;-6.356;2023-05-07T05:40:46;11.30;99.90
35531;DHT22;21637;53.352;-6.356;2023-05-07T05:43:13;11.30;99.90
35531;DHT22;21637;53.352;-6.356;2023-05-07T05:45:39;11.40;99.90
35531;DHT22;21637;53.352;-6.356;2023-05-07T05:48:05;11.50;99.90
35531;DHT22;21637;53.352;-6.356;2023-05-07T05:50:31;11.60;99.90
35531;DHT22;21637;53.352;-6.356;2023-05-07T05:52:56;11.70;99.90
35531;DHT22;21637;53.352;-6.356;2023-05-07T05:55:23;11.90;99.90
35531;DHT22;21637;53.352;-6.356;2023-05-07T05:57:49;12.00;99.90
35531;DHT22;21637;53.352;-6.356;2023-05-07T06:00:16;12.20;99.90
35531;DHT22;21637;53.352;-6.356;2023-05-07T06:02:41;12.30;99.90
35531;DHT22;21637;53.352;-6.356;2023-05-07T06:05:08;12.40;99.90
35531;DHT22;21637;53.352;-6.356;2023-05-07T06:07:34;12.60;99.90
35531;DHT22;21637;53.352;-6.356;2023-05-07T06:10:01;12.70;99.90
35531;DHT22;21637;53.352;-6.356;2023-05-07T06:12:26;12.90;99.90
35531;DHT22;21637;53.352;-6.356;2023-05-07T06:14:52;13.10;99.90
35531;DHT22;21637;53.352;-6.356;2023-05-07T06:17:18;13.20;99.90
35531;DHT22;21637;53.352;-6.356;2023-05-07T06:19:44;13.30;99.90
35531;DHT22;21637;53.352;-6.356;2023-05-07T06:22:09;13.50;99.90
35531;DHT22;21637;53.352;-6.356;2023-05-07T06:24:35;13.60;99.90
35531;DHT22;21637;53.352;-6.356;2023-05-07T06:27:01;13.80;99.90
35531;DHT22;21637;53.352;-6.356;2023-05-07T06:29:27;13.80;99.90
35531;DHT22;21637;53.352;-6.356;2023-05-07T06:31:53;13.80;99.90
35531;DHT22;21637;53.352;-6.356;2023-05-07T06:34:19;13.80;99.90
35531;DHT22;21637;53.352;-6.356;2023-05-07T06:36:44;13.90;99.90
35531;DHT22;21637;53.352;-6.356;2023-05-07T06:39:10;14.00;99.90
35531;DHT22;21637;53.352;-6.356;2023-05-07T06:41:36;14.20;99.90
35531;DHT22;21637;53.352;-6.356;2023-05-07T06:44:02;14.50;99.90
35531;DHT22;21637;53.352;-6.356;2023-05-07T06:46:28;14.60;99.90
35531;DHT22;21637;53.352;-6.356;2023-05-07T06:48:54;14.90;99.90
35531;DHT22;21637;53.352;-6.356;2023-05-07T06:51:22;15.10;99.90
35531;DHT22;21637;53.352;-6.356;2023-05-07T06:53:48;15.40;99.90
35531;DHT22;21637;53.352;-6.356;2023-05-07T06:56:13;15.50;99.90
35531;DHT22;21637;53.352;-6.356;2023-05-07T06:58:39;15.50;99.90
35531;DHT22;21637;53.352;-6.356;2023-05-07T07:01:05;15.40;99.90
35531;DHT22;21637;53.352;-6.356;2023-05-07T07:03:31;15.30;99.90
35531;DHT22;21637;53.352;-6.356;2023-05-07T07:05:56;15.10;99.90
35531;DHT22;21637;53.352;-6.356;2023-05-07T07:08:22;15.00;99.90
35531;DHT22;21637;53.352;-6.356;2023-05-07T07:10:48;14.80;99.90
35531;DHT22;21637;53.352;-6.356;2023-05-07T07:13:14;14.60;99.90
35531;DHT22;21637;53.352;-6.356;2023-05-07T07:15:40;14.60;99.90
35531;DHT22;21637;53.352;-6.356;2023-05-07T07:18:06;14.50;99.90
35531;DHT22;21637;53.352;-6.356;2023-05-07T07:20:32;14.40;99.90
35531;DHT22;21637;53.352;-6.356;2023-05-07T07:22:57;14.40;99.90
35531;DHT22;21637;53.352;-6.356;2023-05-07T07:25:23;14.30;99.90
35531;DHT22;21637;53.352;-6.356;2023-05-07T07:27:49;14.40;99.90
35531;DHT22;21637;53.352;-6.356;2023-05-07T07:30:15;14.50;99.90
35531;DHT22;21637;53.352;-6.356;2023-05-07T07:32:41;14.60;99.90
35531;DHT22;21637;53.352;-6.356;2023-05-07T07:35:07;14.90;99.90
35531;DHT22;21637;53.352;-6.356;2023-05-07T07:37:33;15.20;99.90
35531;DHT22;21637;53.352;-6.356;2023-05-07T07:40:00;15.40;99.90
35531;DHT22;21637;53.352;-6.356;2023-05-07T07:42:26;15.60;99.90
35531;DHT22;21637;53.352;-6.356;2023-05-07T07:44:52;15.60;99.90
35531;DHT22;21637;53.352;-6.356;2023-05-07T07:47:17;15.60;99.90
35531;DHT22;21637;53.352;-6.356;2023-05-07T07:49:43;15.80;99.90
35531;DHT22;21637;53.352;-6.356;2023-05-07T07:52:09;15.90;99.90
35531;DHT22;21637;53.352;-6.356;2023-05-07T07:54:35;16.10;99.90
35531;DHT22;21637;53.352;-6.356;2023-05-07T07:57:00;16.30;99.90
35531;DHT22;21637;53.352;-6.356;2023-05-07T07:59:26;16.50;99.90
35531;DHT22;21637;53.352;-6.356;2023-05-07T08:01:52;16.70;99.90
35531;DHT22;21637;53.352;-6.356;2023-05-07T08:04:21;16.50;99.90
35531;DHT22;21637;53.352;-6.356;2023-05-07T08:06:47;16.50;99.90
35531;DHT22;21637;53.352;-6.356;2023-05-07T08:09:12;16.60;99.90
35531;DHT22;21637;53.352;-6.356;2023-05-07T08:11:38;16.60;99.90
35531;DHT22;21637;53.352;-6.356;2023-05-07T08:14:04;16.60;99.90
35531;DHT22;21637;53.352;-6.356;2023-05-07T08:16:30;16.60;99.90
35531;DHT22;21637;53.352;-6.356;2023-05-07T08:18:56;16.60;99.90
35531;DHT22;21637;53.352;-6.356;2023-05-07T08:21:22;16.80;99.90
35531;DHT22;21637;53.352;-6.356;2023-05-07T08:23:48;16.70;99.90
35531;DHT22;21637;53.352;-6.356;2023-05-07T08:26:14;16.70;99.90
35531;DHT22;21637;53.352;-6.356;2023-05-07T08:28:40;16.80;99.90
35531;DHT22;21637;53.352;-6.356;2023-05-07T08:31:06;16.80;99.90
35531;DHT22;21637;53.352;-6.356;2023-05-07T08:33:31;16.80;99.90
35531;DHT22;21637;53.352;-6.356;2023-05-07T08:35:57;16.90;99.90
35531;DHT22;21637;53.352;-6.356;2023-05-07T08:38:23;17.00;99.90
35531;DHT22;21637;53.352;-6.356;2023-05-07T08:40:49;17.00;99.90
35531;DHT22;21637;53.352;-6.356;2023-05-07T08:43:15;17.00;99.90
35531;DHT22;21637;53.352;-6.356;2023-05-07T08:45:42;17.10;99.90
35531;DHT22;21637;53.352;-6.356;2023-05-07T08:48:22;17.20;99.90
35531;DHT22;21637;53.352;-6.356;2023-05-07T08:50:50;17.30;99.90
35531;DHT22;21637;53.352;-6.356;2023-05-07T08:53:16;17.50;99.90
35531;DHT22;21637;53.352;-6.356;2023-05-07T08:55:43;17.60;99.90
35531;DHT22;21637;53.352;-6.356;2023-05-07T08:58:08;17.60;99.90
35531;DHT22;21637;53.352;-6.356;2023-05-07T09:00:36;17.50;99.90
35531;DHT22;21637;53.352;-6.356;2023-05-07T09:03:02;17.50;99.90
35531;DHT22;21637;53.352;-6.356;2023-05-07T09:05:28;17.40;99.90
35531;DHT22;21637;53.352;-6.356;2023-05-07T09:07:54;17.30;99.90
35531;DHT22;21637;53.352;-6.356;2023-05-07T09:10:21;17.30;99.90
35531;DHT22;21637;53.352;-6.356;2023-05-07T09:12:47;17.20;99.90
35531;DHT22;21637;53.352;-6.356;2023-05-07T09:15:13;17.10;99.90
35531;DHT22;21637;53.352;-6.356;2023-05-07T09:17:39;17.00;99.90
35531;DHT22;21637;53.352;-6.356;2023-05-07T09:20:08;16.90;99.90
35531;DHT22;21637;53.352;-6.356;2023-05-07T09:22:36;16.90;99.90
35531;DHT22;21637;53.352;-6.356;2023-05-07T09:25:02;16.80;99.90
35531;DHT22;21637;53.352;-6.356;2023-05-07T09:27:27;16.90;99.90
35531;DHT22;21637;53.352;-6.356;2023-05-07T09:29:53;16.90;99.90
35531;DHT22;21637;53.352;-6.356;2023-05-07T09:32:19;17.10;99.90
35531;DHT22;21637;53.352;-6.356;2023-05-07T09:34:45;17.20;99.90
35531;DHT22;21637;53.352;-6.356;2023-05-07T09:37:12;17.20;99.90
35531;DHT22;21637;53.352;-6.356;2023-05-07T09:39:46;17.30;99.90
35531;DHT22;21637;53.352;-6.356;2023-05-07T09:42:12;17.50;99.90
35531;DHT22;21637;53.352;-6.356;2023-05-07T09:44:40;17.60;99.90
35531;DHT22;21637;53.352;-6.356;2023-05-07T09:47:07;17.70;99.90
35531;DHT22;21637;53.352;-6.356;2023-05-07T09:49:39;18.00;99.90
35531;DHT22;21637;53.352;-6.356;2023-05-07T09:52:07;18.10;99.90
35531;DHT22;21637;53.352;-6.356;2023-05-07T09:54:36;18.40;99.90
35531;DHT22;21637;53.352;-6.356;2023-05-07T09:57:04;18.60;99.90
35531;DHT22;21637;53.352;-6.356;2023-05-07T09:59:32;18.60;99.90
35531;DHT22;21637;53.352;-6.356;2023-05-07T10:01:59;18.70;99.90
35531;DHT22;21637;53.352;-6.356;2023-05-07T10:04:28;18.70;99.90
35531;DHT22;21637;53.352;-6.356;2023-05-07T10:06:55;18.80;99.90
35531;DHT22;21637;53.352;-6.356;2023-05-07T10:09:21;18.80;99.90
35531;DHT22;21637;53.352;-6.356;2023-05-07T10:11:51;18.70;99.90
35531;DHT22;21637;53.352;-6.356;2023-05-07T10:14:17;18.60;99.90
35531;DHT22;21637;53.352;-6.356;2023-05-07T10:16:43;18.60;99.90
35531;DHT22;21637;53.352;-6.356;2023-05-07T10:19:10;18.50;99.90
35531;DHT22;21637;53.352;-6.356;2023-05-07T10:21:36;18.30;99.90
35531;DHT22;21637;53.352;-6.356;2023-05-07T10:24:09;18.00;99.90
35531;DHT22;21637;53.352;-6.356;2023-05-07T10:26:44;18.00;99.90
35531;DHT22;21637;53.352;-6.356;2023-05-07T10:32:45;18.10;99.90
35531;DHT22;21637;53.352;-6.356;2023-05-07T10:35:17;18.40;99.90
35531;DHT22;21637;53.352;-6.356;2023-05-07T10:37:45;18.40;99.90
35531;DHT22;21637;53.352;-6.356;2023-05-07T10:40:12;18.40;99.90
35531;DHT22;21637;53.352;-6.356;2023-05-07T10:42:38;18.40;99.90
35531;DHT22;21637;53.352;-6.356;2023-05-07T10:45:15;18.50;99.90
35531;DHT22;21637;53.352;-6.356;2023-05-07T10:50:33;19.20;99.90
35531;DHT22;21637;53.352;-6.356;2023-05-07T10:55:47;19.20;99.90
35531;DHT22;21637;53.352;-6.356;2023-05-07T10:58:27;19.40;99.90
35531;DHT22;21637;53.352;-6.356;2023-05-07T11:01:00;19.10;99.90
35531;DHT22;21637;53.352;-6.356;2023-05-07T11:03:27;18.70;99.90
35531;DHT22;21637;53.352;-6.356;2023-05-07T11:06:14;18.40;99.90
35531;DHT22;21637;53.352;-6.356;2023-05-07T11:11:18;18.30;99.90
35531;DHT22;21637;53.352;-6.356;2023-05-07T11:13:48;18.20;99.90
35531;DHT22;21637;53.352;-6.356;2023-05-07T11:16:21;18.20;99.90
35531;DHT22;21637;53.352;-6.356;2023-05-07T11:18:53;18.20;99.90
35531;DHT22;21637;53.352;-6.356;2023-05-07T11:23:59;18.00;99.90
35531;DHT22;21637;53.352;-6.356;2023-05-07T11:26:25;18.00;99.90
35531;DHT22;21637;53.352;-6.356;2023-05-07T11:28:52;18.00;99.90
35531;DHT22;21637;53.352;-6.356;2023-05-07T11:31:27;18.10;99.90
35531;DHT22;21637;53.352;-6.356;2023-05-07T11:33:54;18.30;99.90
35531;DHT22;21637;53.352;-6.356;2023-05-07T11:36:22;18.60;99.90
35531;DHT22;21637;53.352;-6.356;2023-05-07T11:38:48;18.60;99.90
35531;DHT22;21637;53.352;-6.356;2023-05-07T11:41:16;18.30;99.90
35531;DHT22;21637;53.352;-6.356;2023-05-07T11:43:58;18.20;99.90
35531;DHT22;21637;53.352;-6.356;2023-05-07T11:46:24;18.20;99.90
35531;DHT22;21637;53.352;-6.356;2023-05-07T11:48:50;18.10;99.90
35531;DHT22;21637;53.352;-6.356;2023-05-07T11:51:20;18.10;99.90
35531;DHT22;21637;53.352;-6.356;2023-05-07T11:53:46;17.70;99.90
35531;DHT22;21637;53.352;-6.356;2023-05-07T11:56:13;17.80;99.90
35531;DHT22;21637;53.352;-6.356;2023-05-07T11:58:40;17.80;99.90
35531;DHT22;21637;53.352;-6.356;2023-05-07T12:01:10;17.80;99.90
35531;DHT22;21637;53.352;-6.356;2023-05-07T12:03:37;17.70;99.90
35531;DHT22;21637;53.352;-6.356;2023-05-07T12:06:06;17.50;99.90
35531;DHT22;21637;53.352;-6.356;2023-05-07T12:08:32;17.60;99.90
35531;DHT22;21637;53.352;-6.356;2023-05-07T12:10:58;17.60;99.90
35531;DHT22;21637;53.352;-6.356;2023-05-07T12:13:25;17.60;99.90
35531;DHT22;21637;53.352;-6.356;2023-05-07T12:15:52;17.60;99.90
35531;DHT22;21637;53.352;-6.356;2023-05-07T12:18:18;17.80;99.90
35531;DHT22;21637;53.352;-6.356;2023-05-07T12:20:44;17.90;99.90
35531;DHT22;21637;53.352;-6.356;2023-05-07T12:23:11;17.90;99.90
35531;DHT22;21637;53.352;-6.356;2023-05-07T12:25:38;18.10;99.90
35531;DHT22;21637;53.352;-6.356;2023-05-07T12:28:04;18.00;99.90
35531;DHT22;21637;53.352;-6.356;2023-05-07T12:30:37;18.10;99.90
35531;DHT22;21637;53.352;-6.356;2023-05-07T12:33:03;18.30;99.90
35531;DHT22;21637;53.352;-6.356;2023-05-07T12:35:31;18.50;99.90
35531;DHT22;21637;53.352;-6.356;2023-05-07T12:37:58;18.80;99.90
35531;DHT22;21637;53.352;-6.356;2023-05-07T12:40:45;19.10;99.90
35531;DHT22;21637;53.352;-6.356;2023-05-07T12:43:24;19.60;99.90
35531;DHT22;21637;53.352;-6.356;2023-05-07T12:45:51;19.90;99.90
35531;DHT22;21637;53.352;-6.356;2023-05-07T12:48:17;20.10;99.90
35531;DHT22;21637;53.352;-6.356;2023-05-07T12:50:44;20.20;99.90
35531;DHT22;21637;53.352;-6.356;2023-05-07T12:53:11;20.40;99.90
35531;DHT22;21637;53.352;-6.356;2023-05-07T12:55:42;20.60;99.90
35531;DHT22;21637;53.352;-6.356;2023-05-07T12:58:08;20.70;99.90
35531;DHT22;21637;53.352;-6.356;2023-05-07T13:00:39;20.80;99.90
35531;DHT22;21637;53.352;-6.356;2023-05-07T13:03:05;20.80;99.90
35531;DHT22;21637;53.352;-6.356;2023-05-07T13:05:32;20.80;99.90
35531;DHT22;21637;53.352;-6.356;2023-05-07T13:07:58;20.90;99.90
35531;DHT22;21637;53.352;-6.356;2023-05-07T13:10:24;20.80;99.90
35531;DHT22;21637;53.352;-6.356;2023-05-07T13:12:51;20.80;99.90
35531;DHT22;21637;53.352;-6.356;2023-05-07T13:15:17;20.80;99.90
35531;DHT22;21637;53.352;-6.356;2023-05-07T13:17:43;20.80;99.90
35531;DHT22;21637;53.352;-6.356;2023-05-07T13:20:10;20.80;99.90
35531;DHT22;21637;53.352;-6.356;2023-05-07T13:22:37;20.60;99.90
35531;DHT22;21637;53.352;-6.356;2023-05-07T13:25:02;20.30;99.90
35531;DHT22;21637;53.352;-6.356;2023-05-07T13:27:28;20.30;99.90
35531;DHT22;21637;53.352;-6.356;2023-05-07T13:29:56;20.20;99.90
35531;DHT22;21637;53.352;-6.356;2023-05-07T13:32:22;20.20;99.90
35531;DHT22;21637;53.352;-6.356;2023-05-07T13:34:48;20.20;99.90
35531;DHT22;21637;53.352;-6.356;2023-05-07T13:37:13;20.20;99.90
35531;DHT22;21637;53.352;-6.356;2023-05-07T13:39:39;20.10;99.90
35531;DHT22;21637;53.352;-6.356;2023-05-07T13:42:06;20.10;99.90
35531;DHT22;21637;53.352;-6.356;2023-05-07T13:44:32;20.10;99.90
35531;DHT22;21637;53.352;-6.356;2023-05-07T13:46:58;20.00;99.90
35531;DHT22;21637;53.352;-6.356;2023-05-07T13:49:24;20.10;99.90
35531;DHT22;21637;53.352;-6.356;2023-05-07T13:51:50;20.20;99.90
35531;DHT22;21637;53.352;-6.356;2023-05-07T13:54:16;20.30;99.90
35531;DHT22;21637;53.352;-6.356;2023-05-07T13:56:41;20.30;99.90
35531;DHT22;21637;53.352;-6.356;2023-05-07T13:59:07;20.50;99.90
35531;DHT22;21637;53.352;-6.356;2023-05-07T14:01:33;20.60;99.90
35531;DHT22;21637;53.352;-6.356;2023-05-07T14:03:59;20.70;99.90
35531;DHT22;21637;53.352;-6.356;2023-05-07T14:06:25;20.90;99.90
35531;DHT22;21637;53.352;-6.356;2023-05-07T14:08:51;20.90;99.90
35531;DHT22;21637;53.352;-6.356;2023-05-07T14:11:17;21.00;99.90
35531;DHT22;21637;53.352;-6.356;2023-05-07T14:13:43;21.10;99.90
35531;DHT22;21637;53.352;-6.356;2023-05-07T14:16:08;21.20;99.90
35531;DHT22;21637;53.352;-6.356;2023-05-07T14:18:34;21.10;99.90
35531;DHT22;21637;53.352;-6.356;2023-05-07T14:21:02;21.20;99.90
35531;DHT22;21637;53.352;-6.356;2023-05-07T14:23:28;21.20;99.90
35531;DHT22;21637;53.352;-6.356;2023-05-07T14:25:54;21.10;99.90
35531;DHT22;21637;53.352;-6.356;2023-05-07T14:28:20;21.10;99.90
35531;DHT22;21637;53.352;-6.356;2023-05-07T14:30:46;21.00;99.90
35531;DHT22;21637;53.352;-6.356;2023-05-07T14:33:12;20.90;99.90
35531;DHT22;21637;53.352;-6.356;2023-05-07T14:35:38;20.90;99.90
35531;DHT22;21637;53.352;-6.356;2023-05-07T14:38:03;20.90;99.90
35531;DHT22;21637;53.352;-6.356;2023-05-07T14:40:29;20.80;99.90
35531;DHT22;21637;53.352;-6.356;2023-05-07T14:42:55;20.90;99.90
35531;DHT22;21637;53.352;-6.356;2023-05-07T14:45:22;20.80;99.90
35531;DHT22;21637;53.352;-6.356;2023-05-07T14:47:48;20.70;99.90
35531;DHT22;21637;53.352;-6.356;2023-05-07T14:50:14;20.70;99.90
35531;DHT22;21637;53.352;-6.356;2023-05-07T14:52:39;20.60;99.90
35531;DHT22;21637;53.352;-6.356;2023-05-07T14:55:05;20.80;99.90
35531;DHT22;21637;53.352;-6.356;2023-05-07T14:57:31;20.90;99.90
35531;DHT22;21637;53.352;-6.356;2023-05-07T15:00:03;20.70;99.90
35531;DHT22;21637;53.352;-6.356;2023-05-07T15:02:30;20.80;99.90
35531;DHT22;21637;53.352;-6.356;2023-05-07T15:04:56;20.70;99.90
35531;DHT22;21637;53.352;-6.356;2023-05-07T15:07:22;20.70;99.90
35531;DHT22;21637;53.352;-6.356;2023-05-07T15:09:47;20.80;99.90
35531;DHT22;21637;53.352;-6.356;2023-05-07T15:12:13;20.90;99.90
35531;DHT22;21637;53.352;-6.356;2023-05-07T15:14:39;20.90;99.90
35531;DHT22;21637;53.352;-6.356;2023-05-07T15:17:05;21.10;99.90
35531;DHT22;21637;53.352;-6.356;2023-05-07T15:19:31;21.10;99.90
35531;DHT22;21637;53.352;-6.356;2023-05-07T15:21:57;21.30;99.90
35531;DHT22;21637;53.352;-6.356;2023-05-07T15:24:23;21.00;99.90
35531;DHT22;21637;53.352;-6.356;2023-05-07T15:26:51;20.90;99.90